sensor_id;sensor_type;location;lat;lon;timestamp;temperature;humidity
17174;DHT22;8702;48.130;-1.696;2023-02-22T00:01:09;9.50;99.90
17174;DHT22;8702;48.130;-1.696;2023-02-22T00:03:51;9.50;99.90
17174;DHT22;8702;48.130;-1.696;2023-02-22T00:06:21;9.50;99.90
17174;DHT22;8702;48.130;-1.696;2023-02-22T00:08:49;9.80;99.90
17174;DHT22;8702;48.130;-1.696;2023-02-22T00:11:17;9.50;99.90
17174;DHT22;8702;48.130;-1.696;2023-02-22T00:13:45;9.50;99.90
17174;DHT22;8702;48.130;-1.696;2023-02-22T00:16:17;9.40;99.90
17174;DHT22;8702;48.130;-1.696;2023-02-22T00:18:44;9.40;99.90
17174;DHT22;8702;48.130;-1.696;2023-02-22T00:21:14;9.40;99.90
17174;DHT22;8702;48.130;-1.696;2023-02-22T00:23:43;9.40;99.90
17174;DHT22;8702;48.130;-1.696;2023-02-22T00:26:13;9.40;99.90
17174;DHT22;8702;48.130;-1.696;2023-02-22T00:28:44;9.30;99.90
17174;DHT22;8702;48.130;-1.696;2023-02-22T00:31:11;9.10;99.90
17174;DHT22;8702;48.130;-1.696;2023-02-22T00:33:39;8.90;99.90
17174;DHT22;8702;48.130;-1.696;2023-02-22T00:36:07;8.90;99.90
17174;DHT22;8702;48.130;-1.696;2023-02-22T00:38:35;8.90;99.90
17174;DHT22;8702;48.130;-1.696;2023-02-22T00:41:02;8.70;99.90
17174;DHT22;8702;48.130;-1.696;2023-02-22T00:43:29;8.70;99.90
17174;DHT22;8702;48.130;-1.696;2023-02-22T00:45:59;8.30;99.90
17174;DHT22;8702;48.130;-1.696;2023-02-22T00:48:26;8.80;99.90
17174;DHT22;8702;48.130;-1.696;2023-02-22T00:50:53;8.80;99.90
17174;DHT22;8702;48.130;-1.696;2023-02-22T00:53:21;8.80;99.90
17174;DHT22;8702;48.130;-1.696;2023-02-22T00:58:17;9.00;99.90
17174;DHT22;8702;48.130;-1.696;2023-02-22T01:03:13;9.10;99.90
17174;DHT22;8702;48.130;-1.696;2023-02-22T01:05:40;9.10;99.90
17174;DHT22;8702;48.130;-1.696;2023-02-22T01:08:09;9.00;99.90
17174;DHT22;8702;48.130;-1.696;2023-02-22T01:10:38;9.00;99.90
17174;DHT22;8702;48.130;-1.696;2023-02-22T01:13:08;9.00;99.90
17174;DHT22;8702;48.130;-1.696;2023-02-22T01:15:38;9.10;99.90
17174;DHT22;8702;48.130;-1.696;2023-02-22T01:18:06;9.10;99.90
17174;DHT22;8702;48.130;-1.696;2023-02-22T01:20:33;9.00;99.90
17174;DHT22;8702;48.130;-1.696;2023-02-22T01:23:01;9.00;99.90
17174;DHT22;8702;48.130;-1.696;2023-02-22T01:25:31;9.00;99.90
17174;DHT22;8702;48.130;-1.696;2023-02-22T01:27:59;9.00;99.90
17174;DHT22;8702;48.130;-1.696;2023-02-22T01:30:29;9.10;99.90
17174;DHT22;8702;48.130;-1.696;2023-02-22T01:32:58;9.10;99.90
17174;DHT22;8702;48.130;-1.696;2023-02-22T01:35:27;9.00;99.90
17174;DHT22;8702;48.130;-1.696;2023-02-22T01:37:54;9.10;99.90
17174;DHT22;8702;48.130;-1.696;2023-02-22T01:40:28;9.10;99.90
17174;DHT22;8702;48.130;-1.696;2023-02-22T01:42:58;9.10;99.90
17174;DHT22;8702;48.130;-1.696;2023-02-22T01:45:48;9.00;99.90
17174;DHT22;8702;48.130;-1.696;2023-02-22T01:48:18;8.90;99.90
17174;DHT22;8702;48.130;-1.696;2023-02-22T01:50:49;8.90;99.90
17174;DHT22;8702;48.130;-1.696;2023-02-22T01:53:21;8.90;99.90
17174;DHT22;8702;48.130;-1.696;2023-02-22T01:55:50;8.90;99.90
17174;DHT22;8702;48.130;-1.696;2023-02-22T01:58:22;8.80;99.90
17174;DHT22;8702;48.130;-1.696;2023-02-22T02:00:51;8.70;99.90
17174;DHT22;8702;48.130;-1.696;2023-02-22T02:03:21;8.70;99.90
17174;DHT22;8702;48.130;-1.696;2023-02-22T02:05:52;8.60;99.90
17174;DHT22;8702;48.130;-1.696;2023-02-22T02:08:29;8.70;99.90
17174;DHT22;8702;48.130;-1.696;2023-02-22T02:10:57;8.70;99.90
17174;DHT22;8702;48.130;-1.696;2023-02-22T02:13:26;8.70;99.90
17174;DHT22;8702;48.130;-1.696;2023-02-22T02:15:55;8.60;99.90
17174;DHT22;8702;48.130;-1.696;2023-02-22T02:18:23;8.60;99.90
17174;DHT22;8702;48.130;-1.696;2023-02-22T02:21:16;8.60;99.90
17174;DHT22;8702;48.130;-1.696;2023-02-22T02:29:46;8.60;99.90
17174;DHT22;8702;48.130;-1.696;2023-02-22T02:54:56;8.70;99.90
17174;DHT22;8702;48.130;-1.696;2023-02-22T02:57:23;8.70;99.90
17174;DHT22;8702;48.130;-1.696;2023-02-22T02:59:50;8.70;99.90
17174;DHT22;8702;48.130;-1.696;2023-02-22T03:02:33;8.70;99.90
17174;DHT22;8702;48.130;-1.696;2023-02-22T03:05:15;8.80;99.90
17174;DHT22;8702;48.130;-1.696;2023-02-22T03:07:48;8.80;99.90
17174;DHT22;8702;48.130;-1.696;2023-02-22T03:10:28;8.80;99.90
17174;DHT22;8702;48.130;-1.696;2023-02-22T03:13:05;8.80;99.90
17174;DHT22;8702;48.130;-1.696;2023-02-22T03:15:43;9.00;99.90
17174;DHT22;8702;48.130;-1.696;2023-02-22T03:18:17;9.10;99.90
17174;DHT22;8702;48.130;-1.696;2023-02-22T03:20:51;9.10;99.90
17174;DHT22;8702;48.130;-1.696;2023-02-22T03:23:23;9.00;99.90
17174;DHT22;8702;48.130;-1.696;2023-02-22T03:25:57;9.10;99.90
17174;DHT22;8702;48.130;-1.696;2023-02-22T03:28:25;9.10;99.90
17174;DHT22;8702;48.130;-1.696;2023-02-22T03:30:59;9.10;99.90
17174;DHT22;8702;48.130;-1.696;2023-02-22T07:02:59;9.50;99.90
17174;DHT22;8702;48.130;-1.696;2023-02-22T07:05:26;9.60;99.90
17174;DHT22;8702;48.130;-1.696;2023-02-22T07:07:55;9.50;99.90
17174;DHT22;8702;48.130;-1.696;2023-02-22T07:10:24;9.60;99.90
17174;DHT22;8702;48.130;-1.696;2023-02-22T07:12:52;9.60;99.90
17174;DHT22;8702;48.130;-1.696;2023-02-22T07:15:21;9.60;99.90
17174;DHT22;8702;48.130;-1.696;2023-02-22T07:17:50;9.60;99.90
17174;DHT22;8702;48.130;-1.696;2023-02-22T07:20:18;9.60;99.90
17174;DHT22;8702;48.130;-1.696;2023-02-22T07:22:45;9.60;99.90
17174;DHT22;8702;48.130;-1.696;2023-02-22T07:25:12;9.50;99.90
17174;DHT22;8702;48.130;-1.696;2023-02-22T07:27:40;9.50;99.90
17174;DHT22;8702;48.130;-1.696;2023-02-22T07:30:15;9.50;99.90
17174;DHT22;8702;48.130;-1.696;2023-02-22T07:35:14;9.50;99.90
17174;DHT22;8702;48.130;-1.696;2023-02-22T07:37:41;9.50;99.90
17174;DHT22;8702;48.130;-1.696;2023-02-22T07:40:09;9.60;99.90
17174;DHT22;8702;48.130;-1.696;2023-02-22T07:42:50;9.60;99.90
17174;DHT22;8702;48.130;-1.696;2023-02-22T07:45:17;9.60;99.90
17174;DHT22;8702;48.130;-1.696;2023-02-22T07:47:46;9.60;99.90
17174;DHT22;8702;48.130;-1.696;2023-02-22T07:52:44;9.50;99.90
17174;DHT22;8702;48.130;-1.696;2023-02-22T07:55:12;9.50;99.90
17174;DHT22;8702;48.130;-1.696;2023-02-22T07:57:39;9.50;99.90
17174;DHT22;8702;48.130;-1.696;2023-02-22T08:00:07;9.60;99.90
17174;DHT22;8702;48.130;-1.696;2023-02-22T08:02:34;9.60;99.90
17174;DHT22;8702;48.130;-1.696;2023-02-22T08:05:05;9.70;99.90
17174;DHT22;8702;48.130;-1.696;2023-02-22T08:07:32;9.70;99.90
17174;DHT22;8702;48.130;-1.696;2023-02-22T08:09:59;9.60;99.90
17174;DHT22;8702;48.130;-1.696;2023-02-22T08:12:26;9.60;99.90
17174;DHT22;8702;48.130;-1.696;2023-02-22T08:14:54;9.70;99.90
17174;DHT22;8702;48.130;-1.696;2023-02-22T08:17:21;9.70;99.90
17174;DHT22;8702;48.130;-1.696;2023-02-22T08:19:48;9.80;99.90
17174;DHT22;8702;48.130;-1.696;2023-02-22T08:22:16;9.70;99.90
17174;DHT22;8702;48.130;-1.696;2023-02-22T08:24:43;9.70;99.90
17174;DHT22;8702;48.130;-1.696;2023-02-22T08:27:10;9.80;99.90
17174;DHT22;8702;48.130;-1.696;2023-02-22T08:29:37;9.70;99.90
17174;DHT22;8702;48.130;-1.696;2023-02-22T08:32:04;9.70;99.90
17174;DHT22;8702;48.130;-1.696;2023-02-22T08:34:31;9.70;99.90
17174;DHT22;8702;48.130;-1.696;2023-02-22T08:36:58;9.70;99.90
17174;DHT22;8702;48.130;-1.696;2023-02-22T08:39:26;9.70;99.90
17174;DHT22;8702;48.130;-1.696;2023-02-22T08:41:53;9.70;99.90
17174;DHT22;8702;48.130;-1.696;2023-02-22T08:44:20;9.80;99.90
17174;DHT22;8702;48.130;-1.696;2023-02-22T08:46:48;9.80;99.90
17174;DHT22;8702;48.130;-1.696;2023-02-22T08:49:16;9.80;99.90
17174;DHT22;8702;48.130;-1.696;2023-02-22T08:51:43;9.80;99.90
17174;DHT22;8702;48.130;-1.696;2023-02-22T08:54:10;9.80;99.90
17174;DHT22;8702;48.130;-1.696;2023-02-22T08:56:38;9.80;99.90
17174;DHT22;8702;48.130;-1.696;2023-02-22T08:59:05;9.90;99.90
17174;DHT22;8702;48.130;-1.696;2023-02-22T09:01:32;9.90;99.90
17174;DHT22;8702;48.130;-1.696;2023-02-22T09:03:59;9.90;99.90
17174;DHT22;8702;48.130;-1.696;2023-02-22T09:06:27;9.90;99.90
17174;DHT22;8702;48.130;-1.696;2023-02-22T09:08:54;9.80;99.90
17174;DHT22;8702;48.130;-1.696;2023-02-22T09:11:21;9.80;99.90
17174;DHT22;8702;48.130;-1.696;2023-02-22T09:13:49;9.90;99.90
17174;DHT22;8702;48.130;-1.696;2023-02-22T09:16:17;9.90;99.90
17174;DHT22;8702;48.130;-1.696;2023-02-22T09:18:44;10.00;99.90
17174;DHT22;8702;48.130;-1.696;2023-02-22T09:21:12;10.00;99.90
17174;DHT22;8702;48.130;-1.696;2023-02-22T09:23:39;10.00;99.90
17174;DHT22;8702;48.130;-1.696;2023-02-22T09:26:07;9.90;99.90
17174;DHT22;8702;48.130;-1.696;2023-02-22T09:28:34;10.00;99.90
17174;DHT22;8702;48.130;-1.696;2023-02-22T09:31:03;10.00;99.90
17174;DHT22;8702;48.130;-1.696;2023-02-22T09:33:30;10.00;99.90
17174;DHT22;8702;48.130;-1.696;2023-02-22T09:35:57;10.10;99.90
17174;DHT22;8702;48.130;-1.696;2023-02-22T09:38:25;10.10;99.90
17174;DHT22;8702;48.130;-1.696;2023-02-22T09:41:12;10.10;99.90
17174;DHT22;8702;48.130;-1.696;2023-02-22T09:43:44;10.00;99.90
17174;DHT22;8702;48.130;-1.696;2023-02-22T09:46:21;10.00;99.90
17174;DHT22;8702;48.130;-1.696;2023-02-22T09:49:03;10.00;99.90
17174;DHT22;8702;48.130;-1.696;2023-02-22T09:51:36;10.00;99.90
17174;DHT22;8702;48.130;-1.696;2023-02-22T09:54:12;10.00;99.90
17174;DHT22;8702;48.130;-1.696;2023-02-22T09:56:43;10.00;99.90
17174;DHT22;8702;48.130;-1.696;2023-02-22T10:01:47;10.10;99.90
17174;DHT22;8702;48.130;-1.696;2023-02-22T10:04:20;10.10;99.90
17174;DHT22;8702;48.130;-1.696;2023-02-22T10:06:58;10.00;99.90
17174;DHT22;8702;48.130;-1.696;2023-02-22T10:09:32;10.00;99.90
17174;DHT22;8702;48.130;-1.696;2023-02-22T10:12:05;9.90;99.90
17174;DHT22;8702;48.130;-1.696;2023-02-22T10:14:56;9.90;99.90
17174;DHT22;8702;48.130;-1.696;2023-02-22T10:17:35;9.90;99.90
17174;DHT22;8702;48.130;-1.696;2023-02-22T10:20:17;9.90;99.90
17174;DHT22;8702;48.130;-1.696;2023-02-22T10:22:59;9.90;99.90
17174;DHT22;8702;48.130;-1.696;2023-02-22T10:25:33;9.80;99.90
17174;DHT22;8702;48.130;-1.696;2023-02-22T10:28:05;9.90;99.90
17174;DHT22;8702;48.130;-1.696;2023-02-22T10:33:12;10.00;99.90
17174;DHT22;8702;48.130;-1.696;2023-02-22T10:35:44;10.00;99.90
17174;DHT22;8702;48.130;-1.696;2023-02-22T12:52:35;10.50;99.90
17174;DHT22;8702;48.130;-1.696;2023-02-22T12:55:11;10.50;99.90
17174;DHT22;8702;48.130;-1.696;2023-02-22T12:57:45;10.50;99.90
17174;DHT22;8702;48.130;-1.696;2023-02-22T13:00:18;10.50;99.90
17174;DHT22;8702;48.130;-1.696;2023-02-22T13:02:57;10.50;99.90
17174;DHT22;8702;48.130;-1.696;2023-02-22T13:05:25;10.50;99.90
17174;DHT22;8702;48.130;-1.696;2023-02-22T13:08:02;10.40;99.90
17174;DHT22;8702;48.130;-1.696;2023-02-22T13:10:42;10.40;99.90
17174;DHT22;8702;48.130;-1.696;2023-02-22T13:15:56;10.40;99.90
17174;DHT22;8702;48.130;-1.696;2023-02-22T14:05:49;10.70;99.90
17174;DHT22;8702;48.130;-1.696;2023-02-22T14:08:42;10.50;99.90
17174;DHT22;8702;48.130;-1.696;2023-02-22T14:14:21;10.10;99.90
17174;DHT22;8702;48.130;-1.696;2023-02-22T14:17:20;9.90;99.90
17174;DHT22;8702;48.130;-1.696;2023-02-22T14:20:19;9.60;99.90
17174;DHT22;8702;48.130;-1.696;2023-02-22T14:22:49;9.50;99.90
17174;DHT22;8702;48.130;-1.696;2023-02-22T14:25:35;9.60;99.90
17174;DHT22;8702;48.130;-1.696;2023-02-22T14:28:05;9.70;99.90
17174;DHT22;8702;48.130;-1.696;2023-02-22T14:30:34;9.70;99.90
17174;DHT22;8702;48.130;-1.696;2023-02-22T14:33:02;9.70;99.90
17174;DHT22;8702;48.130;-1.696;2023-02-22T14:43:16;9.70;99.90
17174;DHT22;8702;48.130;-1.696;2023-02-22T14:48:23;10.00;99.90
17174;DHT22;8702;48.130;-1.696;2023-02-22T14:50:56;10.00;99.90
17174;DHT22;8702;48.130;-1.696;2023-02-22T14:53:31;10.00;99.90
17174;DHT22;8702;48.130;-1.696;2023-02-22T14:56:04;9.90;99.90
17174;DHT22;8702;48.130;-1.696;2023-02-22T14:58:36;9.80;99.90
17174;DHT22;8702;48.130;-1.696;2023-02-22T15:01:26;9.80;99.90
17174;DHT22;8702;48.130;-1.696;2023-02-22T15:03:55;9.90;99.90
17174;DHT22;8702;48.130;-1.696;2023-02-22T15:06:25;10.00;99.90
17174;DHT22;8702;48.130;-1.696;2023-02-22T15:09:07;10.00;99.90
17174;DHT22;8702;48.130;-1.696;2023-02-22T15:11:37;9.90;99.90
17174;DHT22;8702;48.130;-1.696;2023-02-22T15:14:15;9.90;99.90
17174;DHT22;8702;48.130;-1.696;2023-02-22T15:16:46;9.90;99.90
17174;DHT22;8702;48.130;-1.696;2023-02-22T15:19:16;9.70;99.90
17174;DHT22;8702;48.130;-1.696;2023-02-22T15:21:50;9.70;99.90
17174;DHT22;8702;48.130;-1.696;2023-02-22T15:24:21;9.70;99.90
17174;DHT22;8702;48.130;-1.696;2023-02-22T15:26:50;9.60;99.90
17174;DHT22;8702;48.130;-1.696;2023-02-22T15:29:19;9.70;99.90
17174;DHT22;8702;48.130;-1.696;2023-02-22T15:31:47;9.70;99.90
17174;DHT22;8702;48.130;-1.696;2023-02-22T15:34:18;9.70;99.90
17174;DHT22;8702;48.130;-1.696;2023-02-22T15:36:49;9.60;99.90
17174;DHT22;8702;48.130;-1.696;2023-02-22T15:39:22;9.40;99.90
17174;DHT22;8702;48.130;-1.696;2023-02-22T15:42:06;9.40;99.90
17174;DHT22;8702;48.130;-1.696;2023-02-22T15:44:38;9.40;99.90
17174;DHT22;8702;48.130;-1.696;2023-02-22T15:47:05;9.40;99.90
17174;DHT22;8702;48.130;-1.696;2023-02-22T15:49:32;9.50;99.90
17174;DHT22;8702;48.130;-1.696;2023-02-22T15:52:07;9.50;99.90
17174;DHT22;8702;48.130;-1.696;2023-02-22T15:54:43;9.50;99.90
17174;DHT22;8702;48.130;-1.696;2023-02-22T15:57:16;9.60;99.90
17174;DHT22;8702;48.130;-1.696;2023-02-22T15:59:46;9.80;99.90
17174;DHT22;8702;48.130;-1.696;2023-02-22T16:02:36;9.90;99.90
17174;DHT22;8702;48.130;-1.696;2023-02-22T16:05:07;9.90;99.90
17174;DHT22;8702;48.130;-1.696;2023-02-22T16:07:38;10.00;99.90
17174;DHT22;8702;48.130;-1.696;2023-02-22T16:10:20;10.00;99.90
17174;DHT22;8702;48.130;-1.696;2023-02-22T16:12:48;9.90;99.90
17174;DHT22;8702;48.130;-1.696;2023-02-22T16:15:18;10.00;99.90
17174;DHT22;8702;48.130;-1.696;2023-02-22T16:17:45;9.90;99.90
17174;DHT22;8702;48.130;-1.696;2023-02-22T16:20:32;10.00;99.90
17174;DHT22;8702;48.130;-1.696;2023-02-22T16:22:59;10.00;99.90
17174;DHT22;8702;48.130;-1.696;2023-02-22T16:25:31;10.10;99.90
17174;DHT22;8702;48.130;-1.696;2023-02-22T16:28:02;10.10;99.90
17174;DHT22;8702;48.130;-1.696;2023-02-22T16:30:32;10.10;99.90
17174;DHT22;8702;48.130;-1.696;2023-02-22T16:33:03;10.00;99.90
17174;DHT22;8702;48.130;-1.696;2023-02-22T16:35:31;10.00;99.90
17174;DHT22;8702;48.130;-1.696;2023-02-22T16:38:01;9.90;99.90
17174;DHT22;8702;48.130;-1.696;2023-02-22T16:40:32;9.80;99.90
17174;DHT22;8702;48.130;-1.696;2023-02-22T16:43:01;9.70;99.90
17174;DHT22;8702;48.130;-1.696;2023-02-22T16:45:28;9.70;99.90
17174;DHT22;8702;48.130;-1.696;2023-02-22T16:47:55;9.60;99.90
17174;DHT22;8702;48.130;-1.696;2023-02-22T16:50:25;9.60;99.90
17174;DHT22;8702;48.130;-1.696;2023-02-22T16:52:54;9.60;99.90
17174;DHT22;8702;48.130;-1.696;2023-02-22T16:55:23;9.60;99.90
17174;DHT22;8702;48.130;-1.696;2023-02-22T16:57:54;9.40;99.90
17174;DHT22;8702;48.130;-1.696;2023-02-22T17:00:25;9.30;99.90
17174;DHT22;8702;48.130;-1.696;2023-02-22T17:02:57;9.30;99.90
17174;DHT22;8702;48.130;-1.696;2023-02-22T17:05:24;9.30;99.90
17174;DHT22;8702;48.130;-1.696;2023-02-22T17:07:51;9.30;99.90
17174;DHT22;8702;48.130;-1.696;2023-02-22T17:10:18;9.30;99.90
17174;DHT22;8702;48.130;-1.696;2023-02-22T17:12:46;9.30;99.90
17174;DHT22;8702;48.130;-1.696;2023-02-22T17:15:19;9.30;99.90
17174;DHT22;8702;48.130;-1.696;2023-02-22T17:17:47;9.40;99.90
17174;DHT22;8702;48.130;-1.696;2023-02-22T17:20:14;9.40;99.90
17174;DHT22;8702;48.130;-1.696;2023-02-22T17:22:49;9.50;99.90
17174;DHT22;8702;48.130;-1.696;2023-02-22T17:25:19;9.40;99.90
17174;DHT22;8702;48.130;-1.696;2023-02-22T17:27:47;9.40;99.90
17174;DHT22;8702;48.130;-1.696;2023-02-22T17:30:14;9.40;99.90
17174;DHT22;8702;48.130;-1.696;2023-02-22T17:32:47;9.50;99.90
17174;DHT22;8702;48.130;-1.696;2023-02-22T17:35:16;9.50;99.90
17174;DHT22;8702;48.130;-1.696;2023-02-22T17:37:45;9.50;99.90
17174;DHT22;8702;48.130;-1.696;2023-02-22T17:40:13;9.40;99.90
17174;DHT22;8702;48.130;-1.696;2023-02-22T17:42:40;9.50;99.90
17174;DHT22;8702;48.130;-1.696;2023-02-22T17:45:09;9.40;99.90
17174;DHT22;8702;48.130;-1.696;2023-02-22T17:47:39;9.40;99.90
17174;DHT22;8702;48.130;-1.696;2023-02-22T17:50:08;9.30;99.90
17174;DHT22;8702;48.130;-1.696;2023-02-22T17:52:36;9.40;99.90
17174;DHT22;8702;48.130;-1.696;2023-02-22T17:55:04;9.30;99.90
17174;DHT22;8702;48.130;-1.696;2023-02-22T17:57:31;9.40;99.90
17174;DHT22;8702;48.130;-1.696;2023-02-22T17:59:58;9.50;99.90
17174;DHT22;8702;48.130;-1.696;2023-02-22T18:02:25;9.40;99.90
17174;DHT22;8702;48.130;-1.696;2023-02-22T18:04:52;9.50;99.90
17174;DHT22;8702;48.130;-1.696;2023-02-22T18:07:20;9.50;99.90
17174;DHT22;8702;48.130;-1.696;2023-02-22T18:09:47;9.40;99.90
17174;DHT22;8702;48.130;-1.696;2023-02-22T18:12:14;9.40;99.90
17174;DHT22;8702;48.130;-1.696;2023-02-22T18:14:41;9.30;99.90
17174;DHT22;8702;48.130;-1.696;2023-02-22T18:17:08;9.20;99.90
17174;DHT22;8702;48.130;-1.696;2023-02-22T18:19:34;9.20;99.90
17174;DHT22;8702;48.130;-1.696;2023-02-22T18:22:01;9.20;99.90
17174;DHT22;8702;48.130;-1.696;2023-02-22T18:24:36;9.20;99.90
17174;DHT22;8702;48.130;-1.696;2023-02-22T18:27:03;9.20;99.90
17174;DHT22;8702;48.130;-1.696;2023-02-22T18:29:31;9.20;99.90
17174;DHT22;8702;48.130;-1.696;2023-02-22T18:31:58;9.20;99.90
17174;DHT22;8702;48.130;-1.696;2023-02-22T18:34:25;9.20;99.90
17174;DHT22;8702;48.130;-1.696;2023-02-22T18:36:53;9.20;99.90
17174;DHT22;8702;48.130;-1.696;2023-02-22T18:39:20;9.30;99.90
17174;DHT22;8702;48.130;-1.696;2023-02-22T18:41:48;9.30;99.90
17174;DHT22;8702;48.130;-1.696;2023-02-22T18:44:15;9.10;99.90
17174;DHT22;8702;48.130;-1.696;2023-02-22T18:46:42;9.10;99.90
17174;DHT22;8702;48.130;-1.696;2023-02-22T18:49:10;9.00;99.90
17174;DHT22;8702;48.130;-1.696;2023-02-22T18:51:38;9.00;99.90
17174;DHT22;8702;48.130;-1.696;2023-02-22T18:54:09;8.90;99.90
17174;DHT22;8702;48.130;-1.696;2023-02-22T18:56:36;8.90;99.90
17174;DHT22;8702;48.130;-1.696;2023-02-22T18:59:06;8.90;99.90
17174;DHT22;8702;48.130;-1.696;2023-02-22T19:01:37;8.90;99.90
17174;DHT22;8702;48.130;-1.696;2023-02-22T19:04:05;8.80;99.90
17174;DHT22;8702;48.130;-1.696;2023-02-22T19:06:34;8.80;99.90
17174;DHT22;8702;48.130;-1.696;2023-02-22T19:09:01;8.80;99.90
17174;DHT22;8702;48.130;-1.696;2023-02-22T19:11:29;8.80;99.90
17174;DHT22;8702;48.130;-1.696;2023-02-22T19:13:56;8.80;99.90
17174;DHT22;8702;48.130;-1.696;2023-02-22T19:16:26;8.80;99.90
17174;DHT22;8702;48.130;-1.696;2023-02-22T19:18:54;8.90;99.90
17174;DHT22;8702;48.130;-1.696;2023-02-22T19:21:22;8.90;99.90
17174;DHT22;8702;48.130;-1.696;2023-02-22T19:23:50;8.90;99.90
17174;DHT22;8702;48.130;-1.696;2023-02-22T19:26:18;8.90;99.90
17174;DHT22;8702;48.130;-1.696;2023-02-22T19:28:50;8.90;99.90
17174;DHT22;8702;48.130;-1.696;2023-02-22T19:31:19;8.90;99.90
17174;DHT22;8702;48.130;-1.696;2023-02-22T19:33:48;8.80;99.90
17174;DHT22;8702;48.130;-1.696;2023-02-22T19:36:18;8.80;99.90
17174;DHT22;8702;48.130;-1.696;2023-02-22T19:38:47;8.80;99.90
17174;DHT22;8702;48.130;-1.696;2023-02-22T19:41:17;8.80;99.90
17174;DHT22;8702;48.130;-1.696;2023-02-22T19:43:45;8.70;99.90
17174;DHT22;8702;48.130;-1.696;2023-02-22T19:46:12;8.70;99.90
17174;DHT22;8702;48.130;-1.696;2023-02-22T19:48:43;8.70;99.90
17174;DHT22;8702;48.130;-1.696;2023-02-22T19:51:13;8.60;99.90
17174;DHT22;8702;48.130;-1.696;2023-02-22T19:53:42;8.50;99.90
17174;DHT22;8702;48.130;-1.696;2023-02-22T19:56:10;8.60;99.90
17174;DHT22;8702;48.130;-1.696;2023-02-22T19:58:39;8.50;99.90
17174;DHT22;8702;48.130;-1.696;2023-02-22T20:01:12;8.40;99.90
17174;DHT22;8702;48.130;-1.696;2023-02-22T20:03:40;8.50;99.90
17174;DHT22;8702;48.130;-1.696;2023-02-22T20:06:08;8.40;99.90
17174;DHT22;8702;48.130;-1.696;2023-02-22T20:08:37;8.50;99.90
17174;DHT22;8702;48.130;-1.696;2023-02-22T20:11:07;8.50;99.90
17174;DHT22;8702;48.130;-1.696;2023-02-22T20:13:34;8.40;99.90
17174;DHT22;8702;48.130;-1.696;2023-02-22T20:16:02;8.40;99.90
17174;DHT22;8702;48.130;-1.696;2023-02-22T20:18:29;8.40;99.90
17174;DHT22;8702;48.130;-1.696;2023-02-22T20:20:58;8.40;99.90
17174;DHT22;8702;48.130;-1.696;2023-02-22T20:53:04;8.30;99.90
17174;DHT22;8702;48.130;-1.696;2023-02-22T20:55:31;8.30;99.90
17174;DHT22;8702;48.130;-1.696;2023-02-22T20:57:58;8.30;99.90
17174;DHT22;8702;48.130;-1.696;2023-02-22T21:00:26;8.20;99.90
17174;DHT22;8702;48.130;-1.696;2023-02-22T21:02:54;8.10;99.90
17174;DHT22;8702;48.130;-1.696;2023-02-22T21:05:21;8.10;99.90
17174;DHT22;8702;48.130;-1.696;2023-02-22T21:07:48;8.00;99.90
17174;DHT22;8702;48.130;-1.696;2023-02-22T21:10:17;8.00;99.90
17174;DHT22;8702;48.130;-1.696;2023-02-22T21:12:45;7.90;99.90
17174;DHT22;8702;48.130;-1.696;2023-02-22T21:15:12;7.80;99.90
17174;DHT22;8702;48.130;-1.696;2023-02-22T21:17:40;7.90;99.90
17174;DHT22;8702;48.130;-1.696;2023-02-22T21:20:12;7.80;99.90
17174;DHT22;8702;48.130;-1.696;2023-02-22T21:22:40;7.90;99.90
17174;DHT22;8702;48.130;-1.696;2023-02-22T21:25:08;7.80;99.90
17174;DHT22;8702;48.130;-1.696;2023-02-22T21:27:35;7.80;99.90
17174;DHT22;8702;48.130;-1.696;2023-02-22T21:30:02;7.70;99.90
17174;DHT22;8702;48.130;-1.696;2023-02-22T21:32:29;7.70;99.90
17174;DHT22;8702;48.130;-1.696;2023-02-22T21:34:58;7.70;99.90
17174;DHT22;8702;48.130;-1.696;2023-02-22T21:37:25;7.70;99.90
17174;DHT22;8702;48.130;-1.696;2023-02-22T21:39:53;7.70;99.90
17174;DHT22;8702;48.130;-1.696;2023-02-22T21:42:20;7.70;99.90
17174;DHT22;8702;48.130;-1.696;2023-02-22T21:44:46;7.80;99.90
17174;DHT22;8702;48.130;-1.696;2023-02-22T21:47:18;7.70;99.90
17174;DHT22;8702;48.130;-1.696;2023-02-22T21:49:45;7.50;99.90
17174;DHT22;8702;48.130;-1.696;2023-02-22T21:52:15;7.40;99.90
17174;DHT22;8702;48.130;-1.696;2023-02-22T21:54:42;7.30;99.90
17174;DHT22;8702;48.130;-1.696;2023-02-22T21:57:10;7.20;99.90
17174;DHT22;8702;48.130;-1.696;2023-02-22T21:59:37;7.10;99.90
17174;DHT22;8702;48.130;-1.696;2023-02-22T22:02:04;7.20;99.90
17174;DHT22;8702;48.130;-1.696;2023-02-22T22:04:32;7.10;99.90
17174;DHT22;8702;48.130;-1.696;2023-02-22T22:07:00;7.10;99.90
17174;DHT22;8702;48.130;-1.696;2023-02-22T22:09:30;7.00;99.90
17174;DHT22;8702;48.130;-1.696;2023-02-22T22:12:01;6.80;99.90
17174;DHT22;8702;48.130;-1.696;2023-02-22T22:14:30;6.80;99.90
17174;DHT22;8702;48.130;-1.696;2023-02-22T22:16:58;6.70;99.90
17174;DHT22;8702;48.130;-1.696;2023-02-22T22:19:26;6.70;99.90
17174;DHT22;8702;48.130;-1.696;2023-02-22T22:21:53;6.60;99.90
17174;DHT22;8702;48.130;-1.696;2023-02-22T22:24:21;6.70;99.90
17174;DHT22;8702;48.130;-1.696;2023-02-22T22:26:51;6.60;99.90
17174;DHT22;8702;48.130;-1.696;2023-02-22T22:29:19;6.50;99.90
17174;DHT22;8702;48.130;-1.696;2023-02-22T22:31:48;6.40;99.90
17174;DHT22;8702;48.130;-1.696;2023-02-22T22:34:15;6.40;99.90
17174;DHT22;8702;48.130;-1.696;2023-02-22T22:36:42;6.40;99.90
17174;DHT22;8702;48.130;-1.696;2023-02-22T22:39:09;6.40;99.90
17174;DHT22;8702;48.130;-1.696;2023-02-22T22:41:38;6.40;99.90
17174;DHT22;8702;48.130;-1.696;2023-02-22T22:44:07;6.30;99.90
17174;DHT22;8702;48.130;-1.696;2023-02-22T22:46:35;6.20;99.90
17174;DHT22;8702;48.130;-1.696;2023-02-22T22:49:05;6.30;99.90
17174;DHT22;8702;48.130;-1.696;2023-02-22T22:51:32;6.20;99.90
17174;DHT22;8702;48.130;-1.696;2023-02-22T22:54:00;6.20;99.90
17174;DHT22;8702;48.130;-1.696;2023-02-22T22:56:28;6.30;99.90
17174;DHT22;8702;48.130;-1.696;2023-02-22T22:59:00;6.30;99.90
17174;DHT22;8702;48.130;-1.696;2023-02-22T23:01:35;6.30;99.90
17174;DHT22;8702;48.130;-1.696;2023-02-22T23:04:05;6.40;99.90
17174;DHT22;8702;48.130;-1.696;2023-02-22T23:06:34;6.40;99.90
17174;DHT22;8702;48.130;-1.696;2023-02-22T23:09:05;6.30;99.90
17174;DHT22;8702;48.130;-1.696;2023-02-22T23:11:37;6.20;99.90
17174;DHT22;8702;48.130;-1.696;2023-02-22T23:14:09;6.10;99.90
17174;DHT22;8702;48.130;-1.696;2023-02-22T23:16:38;6.00;99.90
17174;DHT22;8702;48.130;-1.696;2023-02-22T23:19:05;6.00;99.90
17174;DHT22;8702;48.130;-1.696;2023-02-22T23:21:34;6.00;99.90
17174;DHT22;8702;48.130;-1.696;2023-02-22T23:24:01;5.80;99.90
17174;DHT22;8702;48.130;-1.696;2023-02-22T23:26:31;5.70;99.90
17174;DHT22;8702;48.130;-1.696;2023-02-22T23:28:58;5.70;99.90
17174;DHT22;8702;48.130;-1.696;2023-02-22T23:31:26;5.70;99.90
17174;DHT22;8702;48.130;-1.696;2023-02-22T23:33:55;5.70;99.90
17174;DHT22;8702;48.130;-1.696;2023-02-22T23:36:24;5.70;99.90
17174;DHT22;8702;48.130;-1.696;2023-02-22T23:38:52;5.90;99.90
17174;DHT22;8702;48.130;-1.696;2023-02-22T23:41:19;5.90;99.90
17174;DHT22;8702;48.130;-1.696;2023-02-22T23:43:49;5.70;99.90
17174;DHT22;8702;48.130;-1.696;2023-02-22T23:46:16;5.60;99.90
17174;DHT22;8702;48.130;-1.696;2023-02-22T23:48:48;5.80;99.90
17174;DHT22;8702;48.130;-1.696;2023-02-22T23:51:18;5.50;99.90
17174;DHT22;8702;48.130;-1.696;2023-02-22T23:53:49;5.60;99.90
17174;DHT22;8702;48.130;-1.696;2023-02-22T23:56:19;5.60;99.90
17174;DHT22;8702;48.130;-1.696;2023-02-22T23:58:47;5.60;99.90
